createdAt,value
2018-07-26T00:01:33.753Z,3.80
2018-07-26T00:04:02.839Z,4.43
2018-07-26T00:06:31.830Z,4.00
2018-07-26T00:09:00.969Z,4.50
2018-07-26T00:11:29.904Z,3.80
2018-07-26T00:13:58.756Z,4.13
2018-07-26T00:16:27.805Z,4.63
2018-07-26T00:18:56.751Z,4.50
2018-07-26T00:21:26.041Z,4.00
2018-07-26T00:23:55.020Z,4.13
2018-07-26T00:26:23.985Z,4.20
2018-07-26T00:28:52.901Z,4.57
2018-07-26T00:31:21.783Z,4.83
2018-07-26T00:33:50.611Z,4.40
2018-07-26T00:36:19.961Z,4.13
2018-07-26T00:38:49.769Z,4.43
2018-07-26T00:41:18.452Z,3.80
2018-07-26T00:43:47.346Z,4.50
2018-07-26T00:46:16.283Z,4.90
2018-07-26T00:48:45.442Z,4.80
2018-07-26T00:51:14.357Z,4.43
2018-07-26T00:53:43.306Z,4.50
2018-07-26T00:56:12.395Z,4.40
2018-07-26T00:58:41.249Z,4.83
2018-07-26T01:01:09.803Z,4.77
2018-07-26T01:03:38.749Z,4.90
2018-07-26T01:06:08.735Z,4.53
2018-07-26T01:08:37.845Z,4.80
2018-07-26T01:11:07.103Z,3.93
2018-07-26T01:13:36.099Z,4.63
2018-07-26T01:16:05.185Z,4.70
2018-07-26T01:18:33.995Z,5.07
2018-07-26T01:21:02.899Z,4.87
2018-07-26T01:23:31.699Z,4.97
2018-07-26T01:26:00.581Z,5.10
2018-07-26T01:28:29.796Z,4.87
2018-07-26T01:30:58.787Z,5.43
2018-07-26T01:33:27.785Z,4.87
2018-07-26T01:35:57.012Z,4.87
2018-07-26T01:38:25.899Z,4.90
2018-07-26T01:40:54.947Z,4.60
2018-07-26T01:44:03.191Z,5.20
2018-07-26T01:46:32.131Z,4.87
2018-07-26T01:49:01.094Z,5.27
2018-07-26T01:51:30.189Z,5.13
2018-07-26T01:53:59.031Z,5.17
2018-07-26T01:56:27.885Z,4.80
2018-07-26T01:58:56.845Z,4.80
2018-07-26T02:01:25.807Z,4.50
2018-07-26T02:03:54.650Z,4.50
2018-07-26T02:06:23.589Z,5.20
2018-07-26T02:08:52.548Z,5.00
2018-07-26T02:11:21.440Z,4.77
2018-07-26T02:13:56.131Z,4.63
2018-07-26T02:16:25.066Z,4.57
2018-07-26T02:18:53.986Z,5.27
2018-07-26T02:21:23.148Z,5.33
2018-07-26T02:23:52.222Z,5.60
2018-07-26T02:26:21.187Z,5.37
2018-07-26T02:28:50.427Z,4.97
2018-07-26T02:31:19.515Z,6.07
2018-07-26T02:33:48.394Z,5.77
2018-07-26T02:36:17.279Z,5.37
2018-07-26T02:38:46.303Z,5.80
2018-07-26T02:41:15.414Z,5.30
2018-07-26T02:43:44.666Z,5.13
2018-07-26T02:46:13.974Z,4.80
2018-07-26T02:48:43.672Z,4.75
2018-07-26T02:51:12.508Z,5.40
2018-07-26T02:53:41.831Z,5.47
2018-07-26T02:56:10.828Z,4.47
2018-07-26T02:58:39.762Z,5.30
2018-07-26T03:01:08.690Z,5.07
2018-07-26T03:03:37.951Z,4.87
2018-07-26T03:06:06.966Z,5.20
2018-07-26T03:08:36.010Z,5.00
2018-07-26T03:11:04.858Z,5.37
2018-07-26T03:13:33.743Z,4.77
2018-07-26T03:16:02.568Z,5.03
2018-07-26T03:18:31.448Z,5.40
2018-07-26T03:21:00.393Z,5.53
2018-07-26T03:23:29.387Z,5.13
2018-07-26T03:25:58.344Z,4.97
2018-07-26T03:28:27.306Z,5.47
2018-07-26T03:30:56.221Z,4.73
2018-07-26T03:33:25.046Z,5.47
2018-07-26T03:35:53.963Z,5.60
2018-07-26T03:38:22.825Z,5.80
2018-07-26T03:40:51.691Z,5.33
2018-07-26T03:43:24.914Z,5.53
2018-07-26T03:45:54.119Z,5.67
2018-07-26T03:48:23.043Z,5.20
2018-07-26T03:50:51.976Z,6.23
2018-07-26T03:53:20.935Z,5.17
2018-07-26T03:55:49.759Z,5.17
2018-07-26T03:58:18.656Z,4.83
2018-07-26T04:00:47.849Z,5.90
2018-07-26T04:03:16.780Z,5.83
2018-07-26T04:05:45.700Z,5.63
2018-07-26T04:08:14.693Z,6.10
2018-07-26T04:10:43.548Z,5.93
2018-07-26T04:13:12.477Z,5.67
2018-07-26T04:15:40.987Z,6.10
2018-07-26T04:18:10.050Z,5.93
2018-07-26T04:20:38.888Z,6.58
2018-07-26T04:23:08.118Z,6.23
2018-07-26T04:25:37.039Z,6.60
2018-07-26T04:28:05.988Z,5.97
2018-07-26T04:30:38.401Z,6.60
2018-07-26T04:33:07.640Z,7.00
2018-07-26T04:35:36.489Z,6.20
2018-07-26T04:38:05.798Z,6.60
2018-07-26T04:40:34.726Z,6.60
2018-07-26T04:43:03.682Z,5.77
2018-07-26T04:45:32.626Z,6.50
2018-07-26T04:48:10.010Z,6.10
2018-07-26T04:50:39.490Z,6.30
2018-07-26T04:53:08.433Z,6.50
2018-07-26T04:55:37.408Z,5.83
2018-07-26T04:58:06.647Z,5.77
2018-07-26T05:00:35.535Z,5.30
2018-07-26T05:03:04.425Z,5.07
2018-07-26T05:05:33.285Z,5.80
2018-07-26T05:08:02.207Z,5.47
2018-07-26T05:10:30.988Z,5.00
2018-07-26T05:12:59.862Z,5.45
2018-07-26T05:15:28.758Z,5.92
2018-07-26T05:17:57.611Z,5.83
2018-07-26T05:20:26.408Z,6.15
2018-07-26T05:22:55.204Z,6.75
2018-07-26T05:25:24.213Z,5.70
2018-07-26T05:27:58.013Z,5.85
2018-07-26T05:30:27.123Z,5.55
2018-07-26T05:32:55.987Z,6.17
2018-07-26T05:35:25.177Z,5.70
2018-07-26T05:37:54.114Z,5.22
2018-07-26T05:40:23.263Z,5.78
2018-07-26T05:42:52.219Z,5.67
2018-07-26T05:45:21.134Z,4.55
2018-07-26T05:47:50.181Z,4.53
2018-07-26T05:50:19.036Z,4.62
2018-07-26T05:52:48.507Z,4.55
2018-07-26T05:55:17.710Z,4.22
2018-07-26T05:57:53.222Z,3.80
2018-07-26T06:00:22.117Z,4.25
2018-07-26T06:02:50.959Z,4.20
2018-07-26T06:05:19.847Z,4.05
2018-07-26T06:07:48.909Z,4.25
2018-07-26T06:10:17.823Z,3.90
2018-07-26T06:13:21.583Z,3.60
2018-07-26T06:15:50.403Z,3.95
2018-07-26T06:18:19.855Z,3.90
2018-07-26T06:20:48.742Z,3.40
2018-07-26T06:23:17.909Z,4.33
2018-07-26T06:25:46.919Z,4.70
2018-07-26T06:28:15.941Z,3.80
2018-07-26T06:30:45.844Z,3.97
2018-07-26T06:33:14.809Z,3.37
2018-07-26T06:35:43.743Z,3.50
2018-07-26T06:38:13.129Z,3.37
2018-07-26T06:40:42.054Z,4.03
2018-07-26T06:43:10.929Z,3.27
2018-07-26T06:45:39.865Z,3.65
2018-07-26T06:48:08.841Z,3.42
2018-07-26T06:50:37.922Z,3.40
2018-07-26T06:53:07.123Z,3.72
2018-07-26T06:55:36.178Z,3.65
2018-07-26T06:58:05.138Z,3.25
2018-07-26T07:00:34.079Z,3.60
2018-07-26T07:03:03.113Z,3.47
2018-07-26T07:05:32.087Z,3.25
2018-07-26T07:08:01.255Z,3.50
2018-07-26T07:10:30.463Z,4.10
2018-07-26T07:12:59.379Z,4.22
2018-07-26T07:15:28.355Z,3.50
2018-07-26T07:17:57.369Z,3.60
2018-07-26T07:20:26.306Z,3.30
2018-07-26T07:22:55.199Z,3.80
2018-07-26T07:25:24.096Z,3.58
2018-07-26T07:27:53.335Z,3.45
2018-07-26T07:30:22.195Z,3.40
2018-07-26T07:32:51.159Z,3.25
2018-07-26T07:35:20.240Z,3.40
2018-07-26T07:37:49.127Z,3.27
2018-07-26T07:40:18.396Z,3.47
2018-07-26T07:42:47.255Z,3.70
2018-07-26T07:45:16.285Z,3.50
2018-07-26T07:47:45.158Z,3.52
2018-07-26T07:50:14.436Z,3.60
2018-07-26T07:52:43.860Z,3.10
2018-07-26T07:55:13.167Z,3.80
2018-07-26T07:57:42.185Z,3.20
2018-07-26T08:00:11.538Z,3.12
2018-07-26T08:02:40.702Z,3.12
2018-07-26T08:05:09.796Z,2.98
2018-07-26T08:07:38.723Z,3.10
2018-07-26T08:10:09.537Z,2.95
2018-07-26T08:12:38.768Z,2.98
2018-07-26T08:15:09.125Z,2.62
2018-07-26T08:17:38.063Z,2.90
2018-07-26T08:20:08.401Z,3.65
2018-07-26T08:22:37.345Z,3.10
2018-07-26T08:25:06.313Z,3.10
2018-07-26T08:27:35.253Z,2.90
2018-07-26T08:30:05.591Z,3.58
2018-07-26T08:32:34.552Z,3.22
2018-07-26T08:35:04.333Z,3.45
2018-07-26T08:37:33.781Z,3.27
2018-07-26T08:40:02.896Z,6.73
2018-07-26T08:42:32.011Z,3.20
2018-07-26T08:45:01.129Z,3.25
2018-07-26T08:47:30.375Z,3.20
2018-07-26T08:49:59.231Z,3.05
2018-07-26T08:52:28.100Z,3.30
2018-07-26T08:54:57.002Z,3.00
2018-07-26T08:57:25.923Z,3.30
2018-07-26T08:59:54.877Z,3.05
2018-07-26T09:02:24.219Z,3.37
2018-07-26T09:04:53.258Z,3.45
2018-07-26T09:07:22.357Z,3.37
2018-07-26T09:09:52.427Z,3.10
2018-07-26T09:12:22.901Z,3.10
2018-07-26T09:14:52.211Z,3.20
2018-07-26T09:17:21.161Z,3.30
2018-07-26T09:19:49.649Z,3.03
2018-07-26T09:22:18.741Z,3.17
2018-07-26T09:24:47.556Z,3.02
2018-07-26T09:27:16.457Z,2.60
2018-07-26T09:29:45.395Z,2.80
2018-07-26T09:32:14.393Z,3.50
2018-07-26T09:34:43.359Z,3.15
2018-07-26T09:37:13.500Z,2.90
2018-07-26T09:39:42.427Z,2.80
2018-07-26T09:42:11.396Z,3.45
2018-07-26T09:44:40.484Z,2.87
2018-07-26T09:47:09.404Z,2.83
2018-07-26T09:49:38.311Z,3.07
2018-07-26T09:52:07.349Z,3.00
2018-07-26T09:54:36.315Z,7.37
2018-07-26T09:57:05.115Z,3.22
2018-07-26T09:59:33.893Z,3.58
2018-07-26T10:02:02.866Z,2.70
2018-07-26T10:04:31.965Z,3.55
2018-07-26T10:07:00.882Z,3.02
2018-07-26T10:09:29.732Z,3.55
2018-07-26T10:11:58.600Z,3.15
2018-07-26T10:14:27.536Z,3.10
2018-07-26T10:16:56.582Z,3.10
2018-07-26T10:19:25.584Z,3.20
2018-07-26T10:21:54.522Z,3.17
2018-07-26T10:24:23.453Z,3.17
2018-07-26T10:26:52.384Z,3.20
2018-07-26T10:29:21.308Z,3.10
2018-07-26T10:31:49.721Z,3.00
2018-07-26T10:34:18.642Z,3.00
2018-07-26T10:36:47.687Z,3.17
2018-07-26T10:39:16.685Z,3.08
2018-07-26T10:41:45.654Z,3.30
2018-07-26T10:44:14.537Z,3.30
2018-07-26T10:46:43.447Z,2.83
2018-07-26T10:49:12.567Z,3.15
2018-07-26T10:51:41.564Z,2.80
2018-07-26T10:54:10.525Z,3.50
2018-07-26T10:56:39.413Z,3.35
2018-07-26T10:59:08.444Z,3.17
2018-07-26T11:01:37.828Z,3.12
2018-07-26T11:04:06.713Z,3.30
2018-07-26T11:06:35.632Z,2.90
2018-07-26T11:09:06.945Z,3.22
2018-07-26T11:11:35.857Z,3.10
2018-07-26T11:14:05.306Z,2.75
2018-07-26T11:16:34.332Z,3.08
2018-07-26T11:19:04.510Z,3.30
2018-07-26T11:21:33.420Z,3.50
2018-07-26T11:24:02.408Z,3.37
2018-07-26T11:26:31.451Z,3.10
2018-07-26T11:29:01.234Z,2.98
2018-07-26T11:31:30.210Z,2.93
2018-07-26T11:33:59.156Z,3.37
2018-07-26T11:36:28.258Z,2.95
2018-07-26T11:38:57.192Z,3.12
2018-07-26T11:41:26.156Z,3.20
2018-07-26T11:43:55.207Z,2.90
2018-07-26T11:46:24.158Z,3.20
2018-07-26T11:48:53.186Z,3.12
2018-07-26T11:51:22.260Z,3.10
2018-07-26T11:53:51.201Z,2.87
2018-07-26T11:56:20.036Z,3.00
2018-07-26T11:58:48.959Z,3.00
2018-07-26T12:01:18.579Z,2.98
2018-07-26T12:03:47.554Z,3.22
2018-07-26T12:06:16.451Z,3.00
2018-07-26T12:08:45.464Z,2.92
2018-07-26T12:11:14.789Z,2.60
2018-07-26T12:13:44.237Z,2.58
2018-07-26T12:16:13.093Z,2.92
2018-07-26T12:18:42.021Z,3.22
2018-07-26T12:21:10.896Z,3.25
2018-07-26T12:23:39.789Z,3.22
2018-07-26T12:26:08.839Z,2.90
2018-07-26T12:28:37.771Z,3.02
2018-07-26T12:31:06.647Z,3.00
2018-07-26T12:33:35.624Z,2.95
2018-07-26T12:36:04.621Z,3.10
2018-07-26T12:38:33.554Z,2.85
2018-07-26T12:41:02.421Z,3.50
2018-07-26T12:43:31.609Z,2.80
2018-07-26T12:46:00.488Z,3.60
2018-07-26T12:48:29.722Z,3.35
2018-07-26T12:50:58.829Z,3.45
2018-07-26T12:53:27.795Z,3.15
2018-07-26T12:55:57.068Z,3.15
2018-07-26T12:58:26.101Z,3.65
2018-07-26T13:00:55.485Z,3.20
2018-07-26T13:03:24.417Z,3.60
2018-07-26T13:05:53.741Z,2.85
2018-07-26T13:08:22.708Z,3.20
2018-07-26T13:10:51.629Z,3.45
2018-07-26T13:13:20.483Z,3.20
2018-07-26T13:15:49.308Z,3.62
2018-07-26T13:18:18.664Z,4.15
2018-07-26T13:20:47.623Z,3.60
2018-07-26T13:23:16.737Z,3.67
2018-07-26T13:25:45.586Z,2.67
2018-07-26T13:28:14.643Z,4.28
2018-07-26T13:30:43.460Z,3.43
2018-07-26T13:33:12.915Z,3.40
2018-07-26T13:35:41.809Z,2.90
2018-07-26T13:38:10.891Z,3.52
2018-07-26T13:40:40.194Z,3.50
2018-07-26T13:43:09.822Z,3.50
2018-07-26T13:45:38.799Z,3.10
2018-07-26T13:48:07.736Z,2.90
2018-07-26T13:50:36.800Z,3.10
2018-07-26T13:53:05.658Z,3.33
2018-07-26T13:55:34.810Z,3.40
2018-07-26T13:58:03.703Z,3.30
2018-07-26T14:00:33.068Z,3.30
2018-07-26T14:03:01.958Z,3.53
2018-07-26T14:05:30.936Z,3.20
2018-07-26T14:07:59.971Z,4.03
2018-07-26T14:10:28.886Z,3.65
2018-07-26T14:12:57.796Z,3.10
2018-07-26T14:15:26.710Z,3.40
2018-07-26T14:17:55.606Z,3.52
2018-07-26T14:20:24.440Z,3.60
2018-07-26T14:22:52.941Z,3.22
2018-07-26T14:25:22.000Z,3.67
2018-07-26T14:27:50.945Z,3.00
2018-07-26T14:30:20.214Z,3.20
2018-07-26T14:32:48.980Z,3.22
2018-07-26T14:35:17.968Z,3.65
2018-07-26T14:37:46.946Z,3.55
2018-07-26T14:40:15.870Z,3.80
2018-07-26T14:42:44.800Z,3.98
2018-07-26T14:45:13.660Z,3.45
2018-07-26T14:47:42.424Z,3.00
2018-07-26T14:50:11.304Z,3.00
2018-07-26T14:52:40.188Z,3.60
2018-07-26T14:55:09.093Z,3.33
2018-07-26T14:57:37.983Z,3.50
2018-07-26T15:00:06.971Z,3.05
2018-07-26T15:02:35.918Z,3.12
2018-07-26T15:05:05.066Z,2.90
2018-07-26T15:07:33.990Z,3.70
2018-07-26T15:10:02.797Z,3.83
2018-07-26T15:12:31.664Z,3.50
2018-07-26T15:15:00.604Z,3.47
2018-07-26T15:17:29.711Z,3.12
2018-07-26T15:19:58.555Z,6.60
2018-07-26T15:22:27.748Z,3.50
2018-07-26T15:24:56.744Z,3.12
2018-07-26T15:27:25.240Z,3.55
2018-07-26T15:29:54.268Z,3.20
2018-07-26T15:32:23.136Z,3.50
2018-07-26T15:34:52.097Z,3.33
2018-07-26T15:37:20.424Z,3.40
2018-07-26T15:39:49.427Z,2.85
2018-07-26T15:42:18.194Z,2.90
2018-07-26T15:44:47.230Z,3.22
2018-07-26T15:47:16.182Z,2.87
2018-07-26T15:49:45.075Z,3.05
2018-07-26T15:52:13.876Z,2.90
2018-07-26T15:54:42.654Z,3.30
2018-07-26T15:57:11.996Z,3.40
2018-07-26T15:59:40.836Z,4.00
2018-07-26T16:02:09.952Z,3.40
2018-07-26T16:04:38.923Z,3.08
2018-07-26T16:07:07.770Z,3.10
2018-07-26T16:09:36.617Z,3.67
2018-07-26T16:12:05.737Z,3.00
2018-07-26T16:14:34.603Z,3.27
2018-07-26T16:17:03.584Z,3.25
2018-07-26T16:19:32.360Z,3.02
2018-07-26T16:22:01.509Z,2.90
2018-07-26T16:24:30.385Z,3.25
2018-07-26T16:26:59.198Z,2.87
2018-07-26T16:29:27.960Z,3.47
2018-07-26T16:31:57.616Z,3.46
2018-07-26T16:34:33.375Z,3.35
2018-07-26T16:40:14.443Z,3.70
2018-07-26T16:42:43.528Z,3.87
2018-07-26T16:45:12.443Z,3.50
2018-07-26T16:47:41.444Z,3.30
2018-07-26T16:50:10.363Z,3.40
2018-07-26T16:52:39.118Z,3.10
2018-07-26T16:55:08.489Z,3.45
2018-07-26T16:57:37.436Z,3.10
2018-07-26T17:00:07.971Z,3.08
2018-07-26T17:02:36.812Z,3.20
2018-07-26T17:05:06.767Z,3.05
2018-07-26T17:07:35.579Z,2.90
2018-07-26T17:10:05.957Z,3.22
2018-07-26T17:12:34.988Z,3.10
2018-07-26T17:15:03.823Z,3.12
2018-07-26T17:17:32.780Z,3.12
2018-07-26T17:20:01.617Z,3.10
2018-07-26T17:22:30.466Z,3.30
2018-07-26T17:24:59.313Z,3.20
2018-07-26T17:27:28.166Z,3.20
2018-07-26T17:29:57.146Z,3.30
2018-07-26T17:32:25.945Z,3.00
2018-07-26T17:34:54.891Z,3.08
2018-07-26T17:37:23.800Z,3.20
2018-07-26T17:39:52.959Z,3.02
2018-07-26T17:42:21.715Z,3.17
2018-07-26T17:44:50.562Z,3.30
2018-07-26T17:47:19.291Z,3.58
2018-07-26T17:49:48.217Z,3.08
2018-07-26T17:52:17.012Z,3.60
2018-07-26T17:54:45.983Z,3.30
2018-07-26T17:57:14.867Z,3.40
2018-07-26T17:59:44.096Z,3.58
2018-07-26T18:02:12.910Z,3.65
2018-07-26T18:04:41.777Z,3.40
2018-07-26T18:07:10.741Z,3.30
2018-07-26T18:09:39.444Z,3.50
2018-07-26T18:12:08.342Z,3.37
2018-07-26T18:14:37.370Z,3.60
2018-07-26T18:17:06.310Z,3.60
2018-07-26T18:19:35.123Z,3.50
2018-07-26T18:22:03.944Z,3.47
2018-07-26T18:24:32.783Z,3.52
2018-07-26T18:27:01.665Z,3.67
2018-07-26T18:29:30.413Z,3.62
2018-07-26T18:31:59.272Z,3.20
2018-07-26T18:34:28.164Z,3.80
2018-07-26T18:37:13.938Z,3.30
2018-07-26T18:39:43.039Z,3.37
2018-07-26T18:42:12.174Z,3.22
2018-07-26T18:44:41.033Z,3.65
2018-07-26T18:47:10.102Z,3.75
2018-07-26T18:49:39.479Z,3.62
2018-07-26T18:52:08.359Z,3.50
2018-07-26T18:54:37.468Z,3.72
2018-07-26T18:57:06.955Z,3.70
2018-07-26T18:59:35.874Z,3.47
2018-07-26T19:02:04.758Z,3.37
2018-07-26T19:04:33.533Z,4.00
2018-07-26T19:07:02.674Z,3.67
2018-07-26T19:09:31.513Z,3.77
2018-07-26T19:12:00.226Z,3.83
2018-07-26T19:14:29.130Z,3.95
2018-07-26T19:16:57.952Z,3.80
2018-07-26T19:19:31.768Z,4.15
2018-07-26T19:22:00.698Z,3.75
2018-07-26T19:24:29.744Z,3.65
2018-07-26T19:27:08.993Z,4.40
2018-07-26T19:29:38.003Z,3.92
2018-07-26T19:32:06.975Z,3.55
2018-07-26T19:34:35.923Z,4.37
2018-07-26T19:37:09.183Z,4.10
2018-07-26T19:39:38.508Z,4.20
2018-07-26T19:42:07.644Z,4.80
2018-07-26T19:44:37.523Z,4.70
2018-07-26T19:47:13.808Z,4.30
2018-07-26T19:49:53.261Z,4.50
2018-07-26T19:52:33.429Z,4.53
2018-07-26T19:55:02.327Z,4.10
2018-07-26T19:57:31.371Z,4.75
2018-07-26T20:00:00.489Z,4.85
2018-07-26T20:02:29.499Z,4.43
2018-07-26T20:04:58.483Z,5.03
2018-07-26T20:07:28.153Z,4.83
2018-07-26T20:09:57.193Z,5.20
2018-07-26T20:12:26.148Z,5.23
2018-07-26T20:14:55.077Z,4.60
2018-07-26T20:17:23.992Z,5.30
2018-07-26T20:19:52.831Z,5.03
2018-07-26T20:22:21.707Z,5.43
2018-07-26T20:24:51.135Z,5.07
2018-07-26T20:27:19.974Z,5.23
2018-07-26T20:29:49.484Z,5.23
2018-07-26T20:32:31.347Z,5.20
2018-07-26T20:35:00.129Z,5.10
2018-07-26T20:37:28.970Z,5.23
2018-07-26T20:39:57.714Z,5.30
2018-07-26T20:42:27.177Z,5.00
2018-07-26T20:44:56.498Z,4.70
2018-07-26T20:47:25.465Z,5.17
2018-07-26T20:49:54.441Z,4.72
2018-07-26T20:52:23.219Z,5.10
2018-07-26T20:54:52.003Z,4.95
2018-07-26T20:57:20.911Z,4.55
2018-07-26T20:59:49.738Z,4.55
2018-07-26T21:02:18.524Z,4.97
2018-07-26T21:04:47.365Z,5.10
2018-07-26T21:07:16.187Z,4.60
2018-07-26T21:09:45.137Z,4.70
2018-07-26T21:12:13.975Z,4.92
2018-07-26T21:14:42.839Z,5.20
2018-07-26T21:17:11.901Z,4.90
2018-07-26T21:19:40.777Z,4.78
2018-07-26T21:22:09.664Z,4.97
2018-07-26T21:24:38.547Z,5.20
2018-07-26T21:27:07.525Z,4.80
2018-07-26T21:29:36.356Z,4.87
2018-07-26T21:32:05.258Z,4.85
2018-07-26T21:34:34.205Z,5.20
2018-07-26T21:37:02.755Z,4.60
2018-07-26T21:39:31.578Z,4.67
2018-07-26T21:42:00.445Z,4.75
2018-07-26T21:44:29.342Z,4.90
2018-07-26T21:46:58.227Z,5.12
2018-07-26T21:49:27.111Z,4.95
2018-07-26T21:51:56.031Z,4.80
2018-07-26T21:54:24.859Z,4.70
2018-07-26T21:56:53.853Z,5.22
2018-07-26T21:59:23.109Z,4.83
2018-07-26T22:01:52.527Z,4.87
2018-07-26T22:04:21.533Z,5.08
2018-07-26T22:06:50.777Z,4.70
2018-07-26T22:09:19.640Z,5.37
2018-07-26T22:11:59.565Z,4.73
2018-07-26T22:14:28.461Z,4.95
2018-07-26T22:16:57.567Z,5.15
2018-07-26T22:19:26.027Z,4.90
2018-07-26T22:21:54.800Z,5.37
2018-07-26T22:24:23.714Z,5.00
2018-07-26T22:26:52.781Z,4.70
2018-07-26T22:29:21.503Z,4.87
2018-07-26T22:31:50.446Z,5.25
2018-07-26T22:34:19.236Z,5.37
2018-07-26T22:36:48.316Z,5.37
2018-07-26T22:39:17.196Z,5.65
2018-07-26T22:41:46.108Z,5.60
2018-07-26T22:44:15.010Z,5.00
2018-07-26T22:46:43.770Z,5.60
2018-07-26T22:49:12.561Z,5.30
2018-07-26T22:51:41.378Z,5.30
2018-07-26T22:54:10.313Z,5.50
2018-07-26T22:56:39.267Z,4.80
2018-07-26T22:59:07.821Z,5.77
2018-07-26T23:01:36.684Z,4.93
2018-07-26T23:04:09.732Z,5.13
2018-07-26T23:06:38.677Z,5.00
2018-07-26T23:09:09.541Z,4.50
2018-07-26T23:11:38.408Z,4.40
2018-07-26T23:14:07.972Z,4.40
2018-07-26T23:16:36.987Z,4.83
2018-07-26T23:19:06.004Z,5.40
2018-07-26T23:21:34.744Z,5.10
2018-07-26T23:24:03.550Z,5.50
2018-07-26T23:26:32.436Z,4.30
2018-07-26T23:29:01.290Z,5.17
2018-07-26T23:31:30.085Z,4.33
2018-07-26T23:33:58.986Z,4.33
2018-07-26T23:36:27.828Z,4.17
2018-07-26T23:38:56.716Z,4.40
2018-07-26T23:41:31.309Z,4.57
2018-07-26T23:44:00.176Z,5.20
2018-07-26T23:46:29.045Z,5.37
2018-07-26T23:48:58.025Z,5.17
2018-07-26T23:51:26.831Z,4.47
2018-07-26T23:53:55.821Z,4.90
2018-07-26T23:56:24.848Z,4.90
2018-07-26T23:58:53.849Z,5.20
